Pagrindinis puslapis
METAR-TAF:

METAR-TAF

Oro uostai :

Hanamakis, Japonija

platuma: 39-26N, ilguma: 141-08E, Aukštis: 90 m

Dabartinis oras

Ataskaita buvo paskelbta 3 valandos ir 45 minutes, ne 10:00 UTC
Vėjas 1 kt nuo kintamojo kryptimis
Temperatūra -2°C
Drėgmė 93%
Slėgis 1027 hPa
Matomumas 10 km arba daugiau
nėra debesų žemiau 1500 m ir nėra kamuolinių lietaus debesų

METAR: RJSI 091000Z VRB01KT CAVOK M02/M03 Q1027

Laikas: 22:45 (13:45 UTC)

Prognozė

Ataskaita buvo paskelbta 2 valandos ir 40 minutes, ne 11:05 UTC
Prognozė galioja nuo 09 metu 12 UTC su 10 metu 18 UTC
Vėjas 4 kt iš Pietų
Matomumas 10 km arba daugiau
Mažai debesys ne aukštis 1000 ft
Išsisklaidę debesys ne aukštis 2000 ft
Laikinai
nuo 09 metu 18 UTC su 10 metu 00 UTC
Matomumas: 2000 m
Mažai debesys ne aukštis 300 ft
Su prošvaistėmis ne aukštis 500 ft
rūkana

TAF: RJSI 091105Z 0912/1018 18004KT 9999 FEW010 SCT020 TEMPO 0918/1000 2000 BR FEW003 BKN005

Orai ataskaitas ir orų prognozės (METAR, TAF).

turimą stotys yra geltonos ir raudonos taškus žemėlapyje.

Perkelti pele per norėdami pamatyti stoties vardą.

Tada spustelėkite, norėdami matyti oro stebėjimo ir prognozės.

Norėdami pakeisti žemėlapį: spustelėkite ant žalios mygtukų su juodo kryžiaus žemyn,; žalią mygtuką su brūkšneliu, jei norite nutolinti; arba žalių rodyklių gretimoms žemėlapius.


METAR-TAF: